Time;durP1;ratioP1;P1;durP2;ratioP2;P2;SDS_P1;SDS_P2;PMS_P1;PMS_P2;Temp;Humidity;BMP_temperature;BMP_pressure;BME280_temperature;BME280_humidity;BME280_pressure;Samples;Min_cycle;Max_cycle;Signal;HPM_P1;HPM_P2
2022/05/09 00:01:59;;;;;;;0.10;0.10;;;;;;;;;;5113209;28;20482;-80
2022/05/09 00:04:25;;;;;;;0.10;0.10;;;;;;;;;;5113360;28;20395;-79
2022/05/09 00:06:51;;;;;;;0.20;0.20;;;;;;;;;;5113094;28;20023;-79
2022/05/09 00:09:18;;;;;;;0.10;0.10;;;;;;;;;;5113254;28;20020;-78
2022/05/09 00:11:44;;;;;;;0.10;0.10;;;;;;;;;;5113002;28;20016;-78
2022/05/09 00:14:11;;;;;;;0.10;0.10;;;;;;;;;;5112925;28;20023;-78
2022/05/09 00:16:37;;;;;;;0.10;0.10;;;;;;;;;;5113343;28;20028;-79
2022/05/09 00:19:04;;;;;;;0.10;0.10;;;;;;;;;;5112756;28;20023;-78
2022/05/09 00:21:34;;;;;;;0.10;0.10;;;;;;;;;;5112987;28;20436;-78
2022/05/09 00:24:00;;;;;;;0.10;0.10;;;;;;;;;;5112672;28;20034;-79
2022/05/09 00:26:31;;;;;;;0.10;0.10;;;;;;;;;;5112722;28;20020;-78
2022/05/09 00:29:02;;;;;;;0.10;0.10;;;;;;;;;;5112678;28;20144;-77
2022/05/09 00:31:28;;;;;;;0.10;0.10;;;;;;;;;;5112828;28;20042;-78
2022/05/09 00:33:54;;;;;;;0.10;0.10;;;;;;;;;;5094374;28;20026;-78
2022/05/09 00:36:21;;;;;;;0.10;0.10;;;;;;;;;;5112756;28;20024;-77
2022/05/09 00:38:47;;;;;;;0.10;0.10;;;;;;;;;;5112162;28;20110;-77
2022/05/09 00:41:29;;;;;;;0.10;0.10;;;;;;;;;;5112629;28;20076;-77
2022/05/09 00:43:55;;;;;;;0.10;0.10;;;;;;;;;;5112363;28;20034;-77
2022/05/09 00:46:21;;;;;;;0.10;0.10;;;;;;;;;;5112583;28;20030;-77
2022/05/09 00:48:48;;;;;;;0.10;0.10;;;;;;;;;;5112053;28;20096;-78
2022/05/09 00:51:16;;;;;;;0.10;0.10;;;;;;;;;;5112321;28;20065;-77
2022/05/09 00:53:42;;;;;;;0.10;0.10;;;;;;;;;;5112086;28;20102;-78
2022/05/09 00:56:11;;;;;;;0.10;0.10;;;;;;;;;;5112553;28;20119;-77
2022/05/09 00:58:39;;;;;;;0.10;0.10;;;;;;;;;;5112412;28;20422;-77
2022/05/09 01:01:05;;;;;;;0.10;0.10;;;;;;;;;;5094390;28;20076;-77
2022/05/09 01:03:40;;;;;;;0.10;0.10;;;;;;;;;;5093942;28;20154;-77
2022/05/09 01:06:06;;;;;;;0.15;0.15;;;;;;;;;;5112277;28;20152;-77
2022/05/09 01:08:32;;;;;;;0.10;0.10;;;;;;;;;;5112020;28;20483;-77
2022/05/09 01:11:00;;;;;;;0.10;0.10;;;;;;;;;;5111299;28;20880;-78
2022/05/09 01:13:31;;;;;;;0.10;0.10;;;;;;;;;;5112090;28;20027;-78
2022/05/09 01:15:58;;;;;;;0.10;0.10;;;;;;;;;;5111871;28;20026;-76
2022/05/09 01:18:25;;;;;;;0.10;0.10;;;;;;;;;;5111942;28;20379;-78
2022/05/09 01:20:51;;;;;;;0.10;0.10;;;;;;;;;;5111725;28;20031;-78
2022/05/09 01:23:17;;;;;;;0.10;0.10;;;;;;;;;;5111860;28;20020;-77
2022/05/09 01:25:44;;;;;;;0.10;0.10;;;;;;;;;;5111707;28;20106;-77
2022/05/09 01:28:11;;;;;;;0.10;0.10;;;;;;;;;;5111823;28;20024;-77
2022/05/09 01:30:49;;;;;;;0.10;0.10;;;;;;;;;;5111894;28;20063;-77
2022/05/09 01:33:21;;;;;;;0.10;0.10;;;;;;;;;;5111746;28;20058;-77
2022/05/09 01:35:50;;;;;;;0.10;0.10;;;;;;;;;;5093270;28;20023;-77
2022/05/09 01:38:19;;;;;;;0.10;0.10;;;;;;;;;;5111815;28;20081;-77
2022/05/09 01:40:45;;;;;;;0.10;0.10;;;;;;;;;;5111193;28;20114;-77
2022/05/09 01:43:11;;;;;;;0.10;0.10;;;;;;;;;;5093632;28;20384;-77
2022/05/09 01:45:37;;;;;;;0.10;0.10;;;;;;;;;;5111903;28;20457;-77
2022/05/09 01:50:48;;;;;;;0.10;0.10;;;;;;;;;;5111204;28;20571;-77
2022/05/09 01:53:15;;;;;;;0.10;0.10;;;;;;;;;;5111675;28;20050;-78
2022/05/09 01:55:41;;;;;;;0.10;0.10;;;;;;;;;;5111369;28;20024;-77
2022/05/09 01:58:07;;;;;;;0.10;0.10;;;;;;;;;;5093456;28;20028;-77
2022/05/09 02:00:33;;;;;;;0.10;0.10;;;;;;;;;;5111453;28;20046;-77
2022/05/09 02:03:00;;;;;;;0.10;0.10;;;;;;;;;;5111277;28;20389;-77
2022/05/09 02:05:26;;;;;;;0.10;0.10;;;;;;;;;;5111469;28;20502;-76
2022/05/09 02:07:53;;;;;;;0.10;0.10;;;;;;;;;;5111233;28;20063;-77
2022/05/09 02:10:19;;;;;;;0.10;0.10;;;;;;;;;;5111356;28;20063;-78
2022/05/09 02:12:45;;;;;;;0.03;0.03;;;;;;;;;;5110981;28;20026;-78
2022/05/09 02:15:11;;;;;;;0.10;0.10;;;;;;;;;;5111323;28;20103;-78
2022/05/09 02:17:38;;;;;;;0.10;0.10;;;;;;;;;;5111661;28;20038;-77
2022/05/09 02:20:05;;;;;;;0.10;0.10;;;;;;;;;;5093166;28;20368;-78
2022/05/09 02:22:31;;;;;;;0.10;0.10;;;;;;;;;;5113201;28;20038;-78
2022/05/09 02:24:57;;;;;;;0.10;0.10;;;;;;;;;;5114983;28;20023;-78
2022/05/09 02:27:23;;;;;;;0.10;0.10;;;;;;;;;;5115032;28;20487;-77
2022/05/09 02:29:49;;;;;;;0.10;0.10;;;;;;;;;;5114922;28;20363;-77
2022/05/09 02:32:16;;;;;;;0.10;0.10;;;;;;;;;;5115063;28;20096;-77
2022/05/09 02:34:42;;;;;;;0.10;0.10;;;;;;;;;;5114944;28;20020;-77
2022/05/09 02:37:08;;;;;;;0.10;0.10;;;;;;;;;;5115409;28;20224;-77
2022/05/09 02:39:34;;;;;;;0.10;0.10;;;;;;;;;;5115150;28;20537;-77
2022/05/09 02:42:00;;;;;;;0.08;0.08;;;;;;;;;;5096017;28;20086;-77
2022/05/09 02:44:27;;;;;;;0.10;0.10;;;;;;;;;;5114797;28;20023;-76
2022/05/09 02:46:53;;;;;;;0.10;0.10;;;;;;;;;;5114609;28;20028;-77
2022/05/09 02:49:19;;;;;;;0.10;0.10;;;;;;;;;;5114778;28;20019;-76
2022/05/09 02:51:48;;;;;;;0.10;0.10;;;;;;;;;;5114527;28;20023;-76
2022/05/09 02:54:14;;;;;;;0.10;0.10;;;;;;;;;;5114702;28;20016;-78
2022/05/09 02:56:40;;;;;;;0.10;0.10;;;;;;;;;;5114395;28;20024;-77
2022/05/09 02:59:06;;;;;;;0.10;0.10;;;;;;;;;;5114933;28;20027;-76
2022/05/09 03:01:32;;;;;;;0.10;0.10;;;;;;;;;;5114491;28;20053;-77
2022/05/09 03:06:43;;;;;;;0.10;0.10;;;;;;;;;;5114516;28;20043;-77
2022/05/09 03:09:09;;;;;;;0.10;0.10;;;;;;;;;;5114317;28;20123;-77
2022/05/09 03:11:35;;;;;;;0.10;0.10;;;;;;;;;;5114762;28;20036;-77
2022/05/09 03:14:01;;;;;;;0.10;0.10;;;;;;;;;;5095874;28;20110;-76
2022/05/09 03:16:27;;;;;;;0.10;0.10;;;;;;;;;;5114265;28;20030;-76
2022/05/09 03:18:53;;;;;;;0.10;0.10;;;;;;;;;;5114000;28;20042;-76
2022/05/09 03:21:19;;;;;;;0.10;0.10;;;;;;;;;;5114172;28;20459;-76
2022/05/09 03:23:46;;;;;;;0.10;0.10;;;;;;;;;;5113812;28;20479;-77
2022/05/09 03:26:12;;;;;;;0.10;0.10;;;;;;;;;;5114263;28;20028;-76
2022/05/09 03:28:38;;;;;;;0.10;0.10;;;;;;;;;;5114337;28;20383;-76
2022/05/09 03:31:04;;;;;;;0.10;0.10;;;;;;;;;;5114304;28;20035;-77
2022/05/09 03:33:30;;;;;;;0.10;0.10;;;;;;;;;;5095326;28;20057;-76
2022/05/09 03:36:01;;;;;;;0.10;0.10;;;;;;;;;;5113600;28;20055;-77
2022/05/09 03:38:27;;;;;;;0.10;0.10;;;;;;;;;;5095539;28;20394;-76
2022/05/09 03:40:53;;;;;;;0.10;0.10;;;;;;;;;;5113548;28;20123;-76
2022/05/09 03:43:19;;;;;;;0.10;0.10;;;;;;;;;;5095548;28;20474;-77
2022/05/09 03:45:47;;;;;;;0.10;0.10;;;;;;;;;;5095401;28;20038;-77
2022/05/09 03:48:13;;;;;;;0.10;0.10;;;;;;;;;;5113627;28;20024;-77
2022/05/09 03:50:39;;;;;;;0.10;0.10;;;;;;;;;;5113258;28;20399;-77
2022/05/09 03:53:05;;;;;;;0.10;0.10;;;;;;;;;;5113990;28;20012;-76
2022/05/09 03:55:33;;;;;;;0.10;0.10;;;;;;;;;;5113418;28;20493;-77
2022/05/09 03:57:59;;;;;;;0.10;0.10;;;;;;;;;;5113276;28;20019;-77
2022/05/09 04:00:26;;;;;;;0.10;0.10;;;;;;;;;;5113455;28;20391;-76
2022/05/09 04:02:53;;;;;;;0.10;0.10;;;;;;;;;;5112981;28;20080;-76
2022/05/09 04:05:19;;;;;;;0.10;0.10;;;;;;;;;;5113145;28;20077;-77
2022/05/09 04:07:47;;;;;;;0.10;0.10;;;;;;;;;;5113157;28;20361;-76
2022/05/09 04:10:14;;;;;;;0.03;0.03;;;;;;;;;;5113239;28;20028;-76
2022/05/09 04:12:40;;;;;;;0.03;0.03;;;;;;;;;;5113028;28;20024;-78
2022/05/09 04:17:52;;;;;;;0.10;0.10;;;;;;;;;;5112836;28;20448;-78
2022/05/09 04:20:18;;;;;;;0.10;0.10;;;;;;;;;;5113018;28;20024;-78
2022/05/09 04:22:44;;;;;;;0.10;0.10;;;;;;;;;;5112764;28;20024;-78
2022/05/09 04:25:12;;;;;;;0.10;0.10;;;;;;;;;;5094777;28;20137;-78
2022/05/09 04:27:38;;;;;;;0.05;0.05;;;;;;;;;;5113298;28;20028;-78
2022/05/09 04:30:07;;;;;;;0.10;0.10;;;;;;;;;;5112973;28;20120;-79
2022/05/09 04:32:34;;;;;;;0.10;0.10;;;;;;;;;;5094609;28;20479;-78
2022/05/09 04:35:00;;;;;;;0.10;0.10;;;;;;;;;;5112328;27;20059;-78
2022/05/09 04:37:26;;;;;;;0.10;0.10;;;;;;;;;;5113640;27;20024;-78
2022/05/09 04:39:54;;;;;;;0.10;0.10;;;;;;;;;;5093851;28;20111;-77
2022/05/09 04:42:20;;;;;;;0.00;0.00;;;;;;;;;;5112597;28;20023;-77
2022/05/09 04:44:46;;;;;;;0.10;0.10;;;;;;;;;;5111481;28;20107;-77
2022/05/09 04:47:13;;;;;;;0.10;0.10;;;;;;;;;;5112562;28;20016;-78
2022/05/09 04:49:39;;;;;;;0.10;0.10;;;;;;;;;;5112358;27;20042;-78
2022/05/09 04:52:06;;;;;;;0.10;0.10;;;;;;;;;;5131007;27;20023;-77
2022/05/09 04:54:32;;;;;;;0.10;0.10;;;;;;;;;;5133020;27;20027;-78
2022/05/09 04:56:58;;;;;;;0.10;0.10;;;;;;;;;;5132777;27;20436;-77
2022/05/09 04:59:24;;;;;;;0.10;0.10;;;;;;;;;;5132741;27;20027;-78
2022/05/09 05:01:50;;;;;;;0.10;0.10;;;;;;;;;;5115427;27;20066;-78
2022/05/09 05:04:17;;;;;;;0.10;0.10;;;;;;;;;;5112274;28;20047;-78
2022/05/09 05:06:44;;;;;;;0.10;0.10;;;;;;;;;;5126538;27;20019;-80
2022/05/09 05:09:10;;;;;;;0.00;0.00;;;;;;;;;;5132134;27;20105;-79
2022/05/09 05:11:37;;;;;;;0.10;0.10;;;;;;;;;;5112490;27;20985;-78
2022/05/09 05:14:03;;;;;;;0.10;0.10;;;;;;;;;;5115547;27;20022;-76
2022/05/09 05:19:14;;;;;;;0.10;0.10;;;;;;;;;;5112250;28;20031;-78
2022/05/09 05:21:44;;;;;;;0.10;0.10;;;;;;;;;;5111723;28;20486;-78
2022/05/09 05:24:10;;;;;;;0.10;0.10;;;;;;;;;;5111889;28;20035;-78
2022/05/09 05:26:36;;;;;;;0.10;0.10;;;;;;;;;;5112148;28;20076;-80
2022/05/09 05:29:02;;;;;;;0.10;0.10;;;;;;;;;;5111640;28;20024;-80
2022/05/09 05:31:28;;;;;;;0.10;0.10;;;;;;;;;;5111788;27;20107;-79
2022/05/09 05:33:55;;;;;;;0.10;0.10;;;;;;;;;;5110911;28;20031;-79
2022/05/09 05:36:21;;;;;;;0.10;0.10;;;;;;;;;;5111522;28;20030;-80
2022/05/09 05:38:51;;;;;;;0.10;0.10;;;;;;;;;;5111252;28;20028;-79
2022/05/09 05:41:18;;;;;;;0.10;0.10;;;;;;;;;;5111880;28;20020;-82
2022/05/09 05:43:44;;;;;;;0.10;0.10;;;;;;;;;;5111382;28;20023;-81
2022/05/09 05:46:11;;;;;;;0.10;0.10;;;;;;;;;;5111643;28;20076;-82
2022/05/09 05:48:37;;;;;;;0.10;0.10;;;;;;;;;;5111946;28;20024;-80
2022/05/09 05:51:04;;;;;;;0.10;0.10;;;;;;;;;;5110975;28;20043;-80
2022/05/09 05:53:30;;;;;;;0.10;0.10;;;;;;;;;;5111556;28;20031;-81
2022/05/09 05:55:56;;;;;;;0.10;0.10;;;;;;;;;;5123813;27;20030;-83
2022/05/09 05:58:23;;;;;;;0.10;0.10;;;;;;;;;;5136373;27;20016;-86
2022/05/09 06:00:49;;;;;;;0.75;0.75;;;;;;;;;;5136056;27;20027;-82
2022/05/09 06:03:15;;;;;;;0.10;0.10;;;;;;;;;;5129826;27;20575;-81
2022/05/09 06:05:41;;;;;;;0.10;0.10;;;;;;;;;;5106036;27;20015;-80
2022/05/09 06:08:08;;;;;;;0.10;0.10;;;;;;;;;;5100923;27;20402;-79
2022/05/09 06:10:34;;;;;;;0.10;0.10;;;;;;;;;;5136364;27;20035;-81
2022/05/09 06:13:04;;;;;;;0.08;0.08;;;;;;;;;;5127735;27;20055;-83
2022/05/09 06:15:33;;;;;;;0.10;0.10;;;;;;;;;;5136018;27;20066;-80
2022/05/09 06:18:08;;;;;;;0.10;0.10;;;;;;;;;;5135764;27;20031;-80
2022/05/09 06:20:35;;;;;;;0.10;0.10;;;;;;;;;;5126224;27;20034;-79
2022/05/09 06:23:03;;;;;;;0.10;0.10;;;;;;;;;;5104080;27;20031;-80
2022/05/09 06:25:30;;;;;;;0.10;0.10;;;;;;;;;;5117002;27;20447;-80
2022/05/09 06:27:56;;;;;;;0.10;0.10;;;;;;;;;;5107656;28;20209;-81
2022/05/09 06:30:24;;;;;;;0.10;0.10;;;;;;;;;;5114808;28;20027;-81
2022/05/09 06:32:50;;;;;;;0.10;0.10;;;;;;;;;;5114552;28;20024;-81
2022/05/09 06:35:21;;;;;;;0.10;0.10;;;;;;;;;;5115016;28;20028;-81
2022/05/09 06:37:48;;;;;;;0.10;0.10;;;;;;;;;;5114974;28;20095;-81
2022/05/09 06:40:14;;;;;;;0.10;0.10;;;;;;;;;;5120117;27;20030;-80
2022/05/09 06:42:41;;;;;;;0.10;0.10;;;;;;;;;;5098305;27;20036;-82
2022/05/09 06:45:07;;;;;;;0.10;0.10;;;;;;;;;;5115141;28;20483;-82
2022/05/09 06:47:33;;;;;;;0.10;0.10;;;;;;;;;;5096524;28;20032;-83
2022/05/09 06:50:00;;;;;;;0.10;0.10;;;;;;;;;;5096220;28;20035;-84
2022/05/09 06:52:26;;;;;;;0.10;0.10;;;;;;;;;;5114859;28;20180;-82
2022/05/09 06:54:52;;;;;;;0.10;0.10;;;;;;;;;;5096125;28;20023;-83
2022/05/09 06:57:18;;;;;;;0.10;0.10;;;;;;;;;;5114607;28;20023;-82
2022/05/09 06:59:44;;;;;;;0.10;0.10;;;;;;;;;;5114452;28;20038;-81
2022/05/09 07:02:14;;;;;;;0.00;0.00;;;;;;;;;;5114490;28;20482;-82
2022/05/09 07:04:40;;;;;;;0.10;0.10;;;;;;;;;;5114366;28;20015;-82
2022/05/09 07:07:06;;;;;;;0.20;0.20;;;;;;;;;;5114521;28;20119;-81
2022/05/09 07:09:33;;;;;;;0.10;0.10;;;;;;;;;;5113909;28;20019;-82
2022/05/09 07:11:59;;;;;;;0.10;0.10;;;;;;;;;;5118755;27;20429;-82
2022/05/09 07:14:25;;;;;;;0.10;0.10;;;;;;;;;;5134936;27;20015;-81
2022/05/09 07:16:54;;;;;;;0.10;0.10;;;;;;;;;;5132596;27;20027;-81
2022/05/09 07:19:20;;;;;;;0.10;0.10;;;;;;;;;;5134926;27;20023;-81
2022/05/09 07:21:46;;;;;;;0.10;0.10;;;;;;;;;;5126762;27;20039;-81
2022/05/09 07:24:12;;;;;;;0.10;0.10;;;;;;;;;;5123130;27;20398;-81
2022/05/09 07:26:39;;;;;;;0.10;0.10;;;;;;;;;;5116374;27;20065;-83
2022/05/09 07:29:05;;;;;;;0.10;0.10;;;;;;;;;;5099376;28;20030;-82
2022/05/09 07:31:31;;;;;;;0.10;0.10;;;;;;;;;;5116652;27;20066;-84
2022/05/09 07:33:57;;;;;;;0.10;0.10;;;;;;;;;;5113591;28;20027;-83
2022/05/09 07:36:23;;;;;;;0.10;0.10;;;;;;;;;;5095781;28;20027;-82
2022/05/09 07:38:50;;;;;;;0.10;0.10;;;;;;;;;;5117131;27;20071;-81
2022/05/09 07:41:16;;;;;;;0.10;0.10;;;;;;;;;;5120645;27;20024;-82
2022/05/09 07:43:43;;;;;;;0.10;0.10;;;;;;;;;;5113646;28;20077;-80
2022/05/09 07:46:08;;;;;;;0.10;0.10;;;;;;;;;;5114076;28;20023;-80
2022/05/09 07:48:34;;;;;;;0.10;0.10;;;;;;;;;;5114253;28;20102;-82
2022/05/09 07:51:01;;;;;;;0.10;0.10;;;;;;;;;;5113379;28;20036;-83
2022/05/09 07:53:30;;;;;;;0.10;0.10;;;;;;;;;;5113655;28;20024;-81
2022/05/09 07:55:56;;;;;;;0.10;0.10;;;;;;;;;;5094893;28;20395;-81
2022/05/09 07:58:23;;;;;;;0.10;0.10;;;;;;;;;;5113565;28;20062;-81
2022/05/09 08:00:49;;;;;;;0.10;0.10;;;;;;;;;;5118707;27;20031;-82
2022/05/09 08:03:17;;;;;;;0.10;0.10;;;;;;;;;;5116191;27;20019;-81
2022/05/09 08:05:43;;;;;;;0.00;0.00;;;;;;;;;;5133236;27;20058;-79
2022/05/09 08:08:10;;;;;;;0.10;0.10;;;;;;;;;;5132069;27;20144;-78
2022/05/09 08:10:36;;;;;;;0.10;0.10;;;;;;;;;;5115604;27;20031;-77
2022/05/09 08:13:03;;;;;;;0.10;0.10;;;;;;;;;;5133517;27;20474;-79
2022/05/09 08:15:31;;;;;;;0.10;0.10;;;;;;;;;;5133756;27;20031;-78
2022/05/09 08:17:58;;;;;;;0.10;0.10;;;;;;;;;;5116970;27;20055;-78
2022/05/09 08:20:24;;;;;;;0.10;0.10;;;;;;;;;;5119806;27;20110;-78
2022/05/09 08:22:58;;;;;;;0.10;0.10;;;;;;;;;;5114725;27;20491;-80
2022/05/09 08:25:24;;;;;;;0.10;0.10;;;;;;;;;;5114010;27;20398;-78
2022/05/09 08:27:51;;;;;;;0.10;0.10;;;;;;;;;;5118910;27;20064;-77
2022/05/09 08:30:18;;;;;;;0.10;0.10;;;;;;;;;;5132874;27;20039;-78
2022/05/09 08:32:44;;;;;;;0.10;0.10;;;;;;;;;;5122631;27;20061;-78
2022/05/09 08:35:10;;;;;;;0.10;0.10;;;;;;;;;;5112534;28;20032;-78
2022/05/09 08:37:36;;;;;;;0.10;0.10;;;;;;;;;;5115853;27;20499;-80
2022/05/09 08:40:03;;;;;;;0.10;0.10;;;;;;;;;;5125699;27;20125;-78
2022/05/09 08:43:01;;;;;;;0.10;0.10;;;;;;;;;;5132233;27;20031;-78
2022/05/09 08:45:38;;;;;;;0.10;0.10;;;;;;;;;;5085424;27;20045;-77
2022/05/09 08:48:22;;;;;;;0.10;0.10;;;;;;;;;;5130875;27;20439;-79
2022/05/09 08:51:11;;;;;;;0.10;0.10;;;;;;;;;;5112395;27;20050;-81
2022/05/09 08:53:38;;;;;;;0.10;0.10;;;;;;;;;;5112502;27;20031;-78
2022/05/09 08:56:05;;;;;;;0.10;0.10;;;;;;;;;;5112368;28;20085;-79
2022/05/09 08:58:40;;;;;;;0.10;0.10;;;;;;;;;;5093953;28;20562;-79
2022/05/09 09:01:12;;;;;;;0.10;0.10;;;;;;;;;;5112358;28;20093;-79
2022/05/09 09:03:39;;;;;;;0.10;0.10;;;;;;;;;;5112492;28;20020;-80
2022/05/09 09:06:11;;;;;;;0.10;0.10;;;;;;;;;;5112321;28;20046;-82
2022/05/09 09:08:38;;;;;;;0.10;0.10;;;;;;;;;;5108333;28;20015;-79
2022/05/09 09:11:13;;;;;;;0.10;0.10;;;;;;;;;;5112405;28;20475;-79
2022/05/09 09:13:48;;;;;;;0.10;0.10;;;;;;;;;;5111986;27;20059;-80
2022/05/09 09:16:31;;;;;;;0.10;0.10;;;;;;;;;;5093611;28;20115;-79
2022/05/09 09:19:16;;;;;;;0.10;0.10;;;;;;;;;;5093295;28;20067;-78
2022/05/09 09:21:42;;;;;;;0.10;0.10;;;;;;;;;;5111484;28;20107;-80
2022/05/09 09:24:16;;;;;;;0.10;0.10;;;;;;;;;;5111761;28;20015;-80
2022/05/09 09:26:53;;;;;;;0.10;0.10;;;;;;;;;;5111691;28;20115;-82
2022/05/09 09:29:22;;;;;;;0.10;0.10;;;;;;;;;;5113150;27;20023;-81
2022/05/09 09:31:50;;;;;;;0.10;0.10;;;;;;;;;;5119903;27;20031;-80
2022/05/09 09:34:26;;;;;;;0.10;0.10;;;;;;;;;;5111528;28;20019;-81
2022/05/09 09:37:02;;;;;;;0.10;0.10;;;;;;;;;;5111438;28;20153;-81
2022/05/09 09:39:28;;;;;;;0.10;0.10;;;;;;;;;;5111623;28;20043;-81
2022/05/09 09:41:56;;;;;;;0.10;0.10;;;;;;;;;;5092521;28;20040;-82
2022/05/09 09:44:23;;;;;;;0.10;0.10;;;;;;;;;;5122821;27;20020;-81
2022/05/09 09:47:02;;;;;;;0.10;0.10;;;;;;;;;;5121553;28;20031;-81
2022/05/09 09:49:28;;;;;;;0.10;0.10;;;;;;;;;;5111418;28;20028;-81
2022/05/09 09:51:54;;;;;;;0.10;0.10;;;;;;;;;;5111345;28;20466;-81
2022/05/09 09:54:32;;;;;;;0.10;0.10;;;;;;;;;;5122023;28;20023;-80
2022/05/09 09:57:14;;;;;;;0.10;0.10;;;;;;;;;;5113373;28;20076;-81
2022/05/09 09:59:40;;;;;;;0.10;0.10;;;;;;;;;;5131835;28;20022;-81
2022/05/09 10:02:19;;;;;;;0.10;0.10;;;;;;;;;;5125735;28;20027;-80
2022/05/09 10:04:45;;;;;;;0.10;0.10;;;;;;;;;;5092539;28;20164;-80
2022/05/09 10:07:27;;;;;;;0.10;0.10;;;;;;;;;;5119164;28;20107;-78
2022/05/09 10:10:12;;;;;;;0.10;0.10;;;;;;;;;;5109422;28;20024;-79
2022/05/09 10:12:49;;;;;;;0.10;0.10;;;;;;;;;;5111528;28;20032;-78
2022/05/09 10:15:23;;;;;;;0.10;0.10;;;;;;;;;;5109794;28;20119;-78
2022/05/09 10:17:50;;;;;;;0.10;0.10;;;;;;;;;;5109454;28;20031;-80
2022/05/09 10:20:24;;;;;;;0.10;0.10;;;;;;;;;;5111139;28;20042;-80
2022/05/09 10:25:37;;;;;;;0.10;0.10;;;;;;;;;;5111572;28;20115;-81
2022/05/09 10:28:07;;;;;;;0.10;0.10;;;;;;;;;;5110769;28;20510;-80
2022/05/09 10:30:53;;;;;;;0.10;0.10;;;;;;;;;;5109828;28;20383;-84
2022/05/09 10:33:22;;;;;;;0.10;0.10;;;;;;;;;;5119000;28;20103;-79
2022/05/09 10:35:55;;;;;;;0.10;0.10;;;;;;;;;;5110880;28;20055;-80
2022/05/09 10:38:26;;;;;;;0.10;0.10;;;;;;;;;;5114650;28;20027;-80
2022/05/09 10:40:59;;;;;;;0.10;0.10;;;;;;;;;;5109981;28;20027;-81
2022/05/09 10:43:25;;;;;;;0.10;0.10;;;;;;;;;;5109828;28;20020;-81
2022/05/09 10:45:52;;;;;;;0.10;0.10;;;;;;;;;;5096304;28;20395;-80
2022/05/09 10:48:23;;;;;;;0.10;0.10;;;;;;;;;;5114785;28;20047;-81
2022/05/09 10:50:52;;;;;;;0.00;0.00;;;;;;;;;;5117371;27;20043;-80
2022/05/09 10:53:30;;;;;;;0.10;0.10;;;;;;;;;;5135338;27;20023;-85
2022/05/09 10:56:05;;;;;;;0.10;0.10;;;;;;;;;;5125361;27;20032;-80
2022/05/09 10:58:41;;;;;;;0.10;0.10;;;;;;;;;;5113196;28;20020;-81
2022/05/09 11:01:16;;;;;;;0.10;0.10;;;;;;;;;;5115145;28;20110;-84
2022/05/09 11:03:44;;;;;;;0.10;0.10;;;;;;;;;;5131844;27;20026;-83
2022/05/09 11:06:29;;;;;;;0.10;0.10;;;;;;;;;;5130836;27;20122;-84
2022/05/09 11:08:58;;;;;;;0.10;0.10;;;;;;;;;;5134793;27;20632;-84
2022/05/09 11:11:25;;;;;;;0.10;0.10;;;;;;;;;;5134897;27;20466;-83
2022/05/09 11:14:02;;;;;;;0.10;0.10;;;;;;;;;;5128323;27;20024;-83
2022/05/09 11:16:51;;;;;;;0.10;0.10;;;;;;;;;;5121946;27;20023;-84
2022/05/09 11:19:31;;;;;;;0.10;0.10;;;;;;;;;;5047375;28;20044;-84
2022/05/09 11:22:15;;;;;;;0.10;0.10;;;;;;;;;;5112797;27;20111;-83
2022/05/09 11:24:51;;;;;;;0.10;0.10;;;;;;;;;;5128362;27;20019;-84
2022/05/09 11:27:17;;;;;;;;;;;;;;;;;;5104271;28;20096;-84
2022/05/09 11:29:43;;;;;;;;;;;;;;;;;;5112850;28;19907;-84
2022/05/09 11:32:19;;;;;;;0.10;0.10;;;;;;;;;;5100480;28;20395;-83
2022/05/09 11:35:04;;;;;;;0.00;0.00;;;;;;;;;;5123125;27;20063;-83
2022/05/09 11:37:36;;;;;;;0.10;0.10;;;;;;;;;;5114833;27;20030;-82
2022/05/09 11:40:14;;;;;;;0.10;0.10;;;;;;;;;;5116545;27;20076;-82
2022/05/09 11:45:46;;;;;;;0.10;0.10;;;;;;;;;;5113749;28;20076;-81
2022/05/09 11:48:25;;;;;;;0.10;0.10;;;;;;;;;;5113816;28;20031;-81
2022/05/09 11:50:56;;;;;;;0.10;0.10;;;;;;;;;;5116871;27;20031;-81
2022/05/09 11:53:24;;;;;;;0.10;0.10;;;;;;;;;;5115512;27;20060;-81
2022/05/09 11:55:50;;;;;;;0.00;0.00;;;;;;;;;;5112871;28;20055;-82
2022/05/09 11:58:17;;;;;;;0.10;0.10;;;;;;;;;;5113445;28;20038;-82
2022/05/09 12:00:47;;;;;;;0.10;0.10;;;;;;;;;;5114004;27;20035;-81
2022/05/09 12:03:13;;;;;;;0.10;0.10;;;;;;;;;;5094911;28;20035;-83
2022/05/09 12:05:39;;;;;;;0.10;0.10;;;;;;;;;;5094891;28;20032;-82
2022/05/09 12:08:08;;;;;;;0.10;0.10;;;;;;;;;;5113678;28;20497;-82
2022/05/09 12:10:38;;;;;;;0.10;0.10;;;;;;;;;;5113320;28;20510;-82
2022/05/09 12:13:20;;;;;;;0.10;0.10;;;;;;;;;;5113080;27;20019;-82
2022/05/09 12:15:47;;;;;;;0.10;0.10;;;;;;;;;;5133445;27;20027;-82
2022/05/09 12:18:17;;;;;;;0.10;0.10;;;;;;;;;;5115273;27;20426;-83
2022/05/09 12:20:46;;;;;;;0.10;0.10;;;;;;;;;;5133341;27;20027;-83
2022/05/09 12:23:32;;;;;;;0.10;0.10;;;;;;;;;;5133433;27;20019;-84
2022/05/09 12:25:59;;;;;;;;;;;;;;;;;;5133340;27;20031;-83
2022/05/09 12:28:27;;;;;;;0.10;0.10;;;;;;;;;;5133520;27;19903;-83
2022/05/09 12:30:56;;;;;;;0.10;0.10;;;;;;;;;;5114688;27;20091;-84
2022/05/09 12:33:41;;;;;;;0.10;0.10;;;;;;;;;;5123770;27;20106;-82
2022/05/09 12:36:13;;;;;;;0.10;0.10;;;;;;;;;;5113093;28;20026;-83
2022/05/09 12:38:40;;;;;;;0.10;0.10;;;;;;;;;;5094370;28;20483;-82
2022/05/09 12:41:11;;;;;;;0.10;0.10;;;;;;;;;;5094678;28;20039;-83
2022/05/09 12:43:38;;;;;;;0.10;0.10;;;;;;;;;;5112973;28;20399;-83
2022/05/09 12:46:06;;;;;;;0.10;0.10;;;;;;;;;;5094534;28;20030;-82
2022/05/09 12:48:32;;;;;;;0.10;0.10;;;;;;;;;;5112493;28;20028;-83
2022/05/09 12:51:04;;;;;;;0.10;0.10;;;;;;;;;;5112148;28;20514;-83
2022/05/09 12:53:33;;;;;;;0.10;0.10;;;;;;;;;;5111967;27;20487;-83
2022/05/09 12:55:59;;;;;;;0.10;0.10;;;;;;;;;;5093841;28;20035;-83
2022/05/09 12:58:29;;;;;;;0.10;0.10;;;;;;;;;;5122298;27;20083;-81
2022/05/09 13:01:00;;;;;;;0.10;0.10;;;;;;;;;;5121906;27;20019;-84
2022/05/09 13:03:26;;;;;;;0.10;0.10;;;;;;;;;;5112236;28;20465;-83
2022/05/09 13:05:53;;;;;;;0.10;0.10;;;;;;;;;;5111390;28;20027;-81
2022/05/09 13:08:19;;;;;;;0.10;0.10;;;;;;;;;;5116858;27;20019;-83
2022/05/09 13:10:51;;;;;;;0.00;0.00;;;;;;;;;;5132357;27;20031;-83
2022/05/09 13:13:34;;;;;;;0.10;0.10;;;;;;;;;;5132515;27;20028;-82
2022/05/09 13:16:01;;;;;;;0.10;0.10;;;;;;;;;;5132390;27;20150;-83
2022/05/09 13:18:28;;;;;;;0.10;0.10;;;;;;;;;;5114424;27;20428;-83
2022/05/09 13:20:57;;;;;;;0.00;0.00;;;;;;;;;;5132266;27;20030;-83
2022/05/09 13:23:37;;;;;;;0.10;0.10;;;;;;;;;;5130682;27;20025;-84
2022/05/09 13:26:08;;;;;;;0.10;0.10;;;;;;;;;;5132196;27;20042;-83
2022/05/09 13:28:45;;;;;;;0.10;0.10;;;;;;;;;;5113836;27;20390;-83
2022/05/09 13:31:11;;;;;;;0.00;0.00;;;;;;;;;;5113887;27;20038;-83
2022/05/09 13:33:46;;;;;;;0.10;0.10;;;;;;;;;;5132576;27;20023;-83
2022/05/09 13:36:14;;;;;;;0.10;0.10;;;;;;;;;;5111323;28;20031;-83
2022/05/09 13:38:41;;;;;;;0.10;0.10;;;;;;;;;;5099595;28;20023;-81
2022/05/09 13:41:08;;;;;;;0.10;0.10;;;;;;;;;;5111750;28;20019;-83
2022/05/09 13:43:46;;;;;;;0.10;0.10;;;;;;;;;;5110661;28;20023;-84
2022/05/09 13:46:14;;;;;;;0.10;0.10;;;;;;;;;;5110393;28;20020;-83
2022/05/09 13:48:40;;;;;;;0.10;0.10;;;;;;;;;;5111425;28;20130;-83
2022/05/09 13:51:06;;;;;;;0.10;0.10;;;;;;;;;;5104768;28;20031;-82
2022/05/09 13:53:53;;;;;;;0.08;0.08;;;;;;;;;;5105670;28;20020;-83
2022/05/09 13:56:23;;;;;;;0.10;0.10;;;;;;;;;;5110051;28;20035;-82
2022/05/09 13:58:50;;;;;;;0.08;0.08;;;;;;;;;;5111410;28;20032;-82
2022/05/09 14:01:16;;;;;;;0.00;0.00;;;;;;;;;;5111538;28;20114;-83
2022/05/09 14:03:44;;;;;;;0.10;0.10;;;;;;;;;;5111163;28;20039;-84
2022/05/09 14:06:11;;;;;;;0.05;0.05;;;;;;;;;;5111761;28;20019;-83
2022/05/09 14:08:38;;;;;;;0.00;0.00;;;;;;;;;;5120751;28;20053;-83
2022/05/09 14:11:05;;;;;;;0.10;0.10;;;;;;;;;;5113390;28;20122;-83
2022/05/09 14:13:34;;;;;;;0.00;0.00;;;;;;;;;;5113404;28;20019;-84
2022/05/09 14:16:23;;;;;;;0.10;0.10;;;;;;;;;;5120928;28;20035;-82
2022/05/09 14:18:52;;;;;;;0.10;0.10;;;;;;;;;;5064760;28;20036;-83
2022/05/09 14:21:20;;;;;;;0.10;0.10;;;;;;;;;;5100481;28;20368;-83
2022/05/09 14:23:49;;;;;;;0.10;0.10;;;;;;;;;;5113835;28;20028;-83
2022/05/09 14:31:58;;;;;;;0.10;0.10;;;;;;;;;;5114980;28;20047;-83
2022/05/09 14:34:24;;;;;;;0.10;0.10;;;;;;;;;;5123402;27;20050;-82
2022/05/09 14:37:07;;;;;;;0.10;0.10;;;;;;;;;;5116966;27;20069;-83
2022/05/09 14:39:34;;;;;;;0.00;0.00;;;;;;;;;;5135573;27;20027;-83
2022/05/09 14:42:17;;;;;;;0.10;0.10;;;;;;;;;;5134868;27;20027;-82
2022/05/09 14:44:44;;;;;;;0.10;0.10;;;;;;;;;;5076139;28;20046;-83
2022/05/09 14:47:10;;;;;;;0.10;0.10;;;;;;;;;;5094478;28;20096;-82
2022/05/09 14:49:47;;;;;;;0.10;0.10;;;;;;;;;;5096263;28;20493;-82
2022/05/09 14:52:29;;;;;;;0.10;0.10;;;;;;;;;;5126519;27;20074;-83
2022/05/09 14:57:50;;;;;;;0.10;0.10;;;;;;;;;;5122664;27;20039;-82
2022/05/09 15:00:19;;;;;;;0.10;0.10;;;;;;;;;;5113162;27;20138;-82
2022/05/09 15:02:55;;;;;;;0.10;0.10;;;;;;;;;;5121225;27;20104;-82
2022/05/09 15:05:21;;;;;;;0.10;0.10;;;;;;;;;;5118267;27;20059;-82
2022/05/09 15:07:47;;;;;;;0.10;0.10;;;;;;;;;;5112830;28;20020;-82
2022/05/09 15:10:13;;;;;;;0.10;0.10;;;;;;;;;;5114377;28;20031;-82
2022/05/09 15:12:41;;;;;;;0.10;0.10;;;;;;;;;;5096602;28;20062;-82
2022/05/09 15:15:08;;;;;;;0.10;0.10;;;;;;;;;;5116514;27;20103;-83
2022/05/09 15:17:34;;;;;;;0.10;0.10;;;;;;;;;;5104098;27;20135;-82
2022/05/09 15:20:00;;;;;;;0.10;0.10;;;;;;;;;;5129482;27;20482;-81